sensor_id;sensor_type;location;lat;lon;timestamp;pressure;altitude;pressure_sealevel;temperature;humidity
86143;BME280;76799;50.146;22.704;2024-03-23T00:52:51;99050.31;;;9.37;75.41
86143;BME280;76799;50.146;22.704;2024-03-23T00:58:39;99043.38;;;9.36;75.66
86143;BME280;76799;50.146;22.704;2024-03-23T01:04:26;99049.00;;;9.33;75.45
86143;BME280;76799;50.146;22.704;2024-03-23T01:10:13;99032.66;;;9.29;76.12
86143;BME280;76799;50.146;22.704;2024-03-23T01:16:00;99033.13;;;9.33;75.97
86143;BME280;76799;50.146;22.704;2024-03-23T01:21:47;99028.19;;;9.30;75.37
86143;BME280;76799;50.146;22.704;2024-03-23T01:27:35;99024.91;;;9.28;75.88
86143;BME280;76799;50.146;22.704;2024-03-23T01:32:46;99015.81;;;9.30;75.79
86143;BME280;76799;50.146;22.704;2024-03-23T01:38:33;99011.53;;;9.29;76.13
86143;BME280;76799;50.146;22.704;2024-03-23T01:44:20;99005.41;;;9.29;75.76
86143;BME280;76799;50.146;22.704;2024-03-23T01:50:08;98990.38;;;9.29;76.41
86143;BME280;76799;50.146;22.704;2024-03-23T01:55:55;98986.94;;;9.21;75.57
86143;BME280;76799;50.146;22.704;2024-03-23T02:01:43;98988.91;;;9.19;76.30
86143;BME280;76799;50.146;22.704;2024-03-23T02:07:30;98989.91;;;9.18;75.77
86143;BME280;76799;50.146;22.704;2024-03-23T02:13:18;98981.97;;;9.18;75.55
86143;BME280;76799;50.146;22.704;2024-03-23T02:19:05;98969.75;;;9.17;75.49
86143;BME280;76799;50.146;22.704;2024-03-23T02:24:52;98958.38;;;9.16;75.94
86143;BME280;76799;50.146;22.704;2024-03-23T02:30:40;98954.09;;;9.15;75.40
86143;BME280;76799;50.146;22.704;2024-03-23T02:35:55;98936.41;;;9.16;75.63
86143;BME280;76799;50.146;22.704;2024-03-23T02:41:42;98938.91;;;9.17;75.77
86143;BME280;76799;50.146;22.704;2024-03-23T02:47:30;98942.19;;;9.19;75.51
86143;BME280;76799;50.146;22.704;2024-03-23T02:53:18;98926.50;;;9.18;75.76
86143;BME280;76799;50.146;22.704;2024-03-23T02:59:05;98921.41;;;9.16;76.13
86143;BME280;76799;50.146;22.704;2024-03-23T03:04:51;98929.97;;;9.18;76.20
86143;BME280;76799;50.146;22.704;2024-03-23T03:10:38;98925.84;;;9.16;75.63
86143;BME280;76799;50.146;22.704;2024-03-23T03:16:26;98912.28;;;9.19;76.35
86143;BME280;76799;50.146;22.704;2024-03-23T03:22:13;98918.41;;;9.19;76.65
86143;BME280;76799;50.146;22.704;2024-03-23T03:28:00;98914.94;;;9.19;77.21
86143;BME280;76799;50.146;22.704;2024-03-23T03:33:49;98892.13;;;9.18;76.28
86143;BME280;76799;50.146;22.704;2024-03-23T03:44:32;98896.97;;;9.14;77.62
86143;BME280;76799;50.146;22.704;2024-03-23T03:50:19;98893.81;;;9.11;76.93
86143;BME280;76799;50.146;22.704;2024-03-23T03:56:06;98884.25;;;9.10;77.48
86143;BME280;76799;50.146;22.704;2024-03-23T04:01:53;98893.47;;;9.14;77.54
86143;BME280;76799;50.146;22.704;2024-03-23T04:07:40;98885.91;;;9.11;77.47
86143;BME280;76799;50.146;22.704;2024-03-23T04:13:27;98889.38;;;9.11;77.34
86143;BME280;76799;50.146;22.704;2024-03-23T04:19:14;98891.69;;;9.14;77.54
86143;BME280;76799;50.146;22.704;2024-03-23T04:25:01;98894.47;;;9.13;77.40
86143;BME280;76799;50.146;22.704;2024-03-23T04:30:53;98884.75;;;9.13;76.31
86143;BME280;76799;50.146;22.704;2024-03-23T04:36:40;98886.19;;;9.16;76.46
86143;BME280;76799;50.146;22.704;2024-03-23T04:41:51;98880.75;;;9.17;76.95
86143;BME280;76799;50.146;22.704;2024-03-23T04:47:38;98869.00;;;9.20;76.92
86143;BME280;76799;50.146;22.704;2024-03-23T04:53:25;98868.66;;;9.23;76.34
86143;BME280;76799;50.146;22.704;2024-03-23T04:59:15;98865.31;;;9.29;76.09
86143;BME280;76799;50.146;22.704;2024-03-23T05:05:02;98862.34;;;9.32;75.69
86143;BME280;76799;50.146;22.704;2024-03-23T05:10:49;98862.81;;;9.35;75.60
86143;BME280;76799;50.146;22.704;2024-03-23T05:16:36;98852.34;;;9.42;75.47
86143;BME280;76799;50.146;22.704;2024-03-23T05:22:23;98853.50;;;9.47;75.23
86143;BME280;76799;50.146;22.704;2024-03-23T05:28:10;98850.97;;;9.54;74.90
86143;BME280;76799;50.146;22.704;2024-03-23T05:33:57;98842.88;;;9.55;74.60
86143;BME280;76799;50.146;22.704;2024-03-23T05:39:45;98825.81;;;9.58;74.95
86143;BME280;76799;50.146;22.704;2024-03-23T05:44:56;98838.03;;;9.59;75.20
86143;BME280;76799;50.146;22.704;2024-03-23T05:50:43;98833.22;;;9.62;75.22
86143;BME280;76799;50.146;22.704;2024-03-23T05:56:30;98830.03;;;9.67;75.12
86143;BME280;76799;50.146;22.704;2024-03-23T06:02:17;98827.69;;;9.72;74.75
86143;BME280;76799;50.146;22.704;2024-03-23T06:11:26;98837.13;;;9.89;75.12
86143;BME280;76799;50.146;22.704;2024-03-23T06:17:13;98840.03;;;10.02;74.32
86143;BME280;76799;50.146;22.704;2024-03-23T06:23:01;98837.31;;;10.10;74.66
86143;BME280;76799;50.146;22.704;2024-03-23T06:28:48;98839.72;;;10.19;74.22
86143;BME280;76799;50.146;22.704;2024-03-23T06:34:35;98839.16;;;10.23;74.61
86143;BME280;76799;50.146;22.704;2024-03-23T06:40:22;98832.16;;;10.30;73.50
86143;BME280;76799;50.146;22.704;2024-03-23T06:49:34;98823.28;;;10.38;73.60
86143;BME280;76799;50.146;22.704;2024-03-23T06:55:21;98804.38;;;10.41;72.96
86143;BME280;76799;50.146;22.704;2024-03-23T07:01:08;98806.78;;;10.50;73.50
86143;BME280;76799;50.146;22.704;2024-03-23T07:06:56;98807.59;;;10.65;72.67
86143;BME280;76799;50.146;22.704;2024-03-23T07:16:05;98806.50;;;10.74;72.96
86143;BME280;76799;50.146;22.704;2024-03-23T07:21:52;98802.00;;;10.75;73.45
86143;BME280;76799;50.146;22.704;2024-03-23T07:44:28;98776.03;;;10.85;73.52
86143;BME280;76799;50.146;22.704;2024-03-23T07:49:39;98772.16;;;11.02;73.43
86143;BME280;76799;50.146;22.704;2024-03-23T07:55:26;98774.19;;;11.21;73.36
86143;BME280;76799;50.146;22.704;2024-03-23T08:01:15;98756.78;;;11.33;72.52
86143;BME280;76799;50.146;22.704;2024-03-23T08:07:02;98739.94;;;11.40;72.30
86143;BME280;76799;50.146;22.704;2024-03-23T08:12:49;98724.53;;;11.50;72.84
86143;BME280;76799;50.146;22.704;2024-03-23T08:42:09;98707.38;;;12.01;70.46
86143;BME280;76799;50.146;22.704;2024-03-23T08:47:56;98712.38;;;12.17;71.27
86143;BME280;76799;50.146;22.704;2024-03-23T08:53:08;98696.53;;;12.30;70.03
86143;BME280;76799;50.146;22.704;2024-03-23T09:17:45;98612.13;;;13.11;68.76
86143;BME280;76799;50.146;22.704;2024-03-23T09:23:32;98613.75;;;13.18;68.15
86143;BME280;76799;50.146;22.704;2024-03-23T09:29:19;98618.25;;;13.37;66.76
86143;BME280;76799;50.146;22.704;2024-03-23T09:38:47;98593.25;;;13.64;65.97
86143;BME280;76799;50.146;22.704;2024-03-23T09:44:35;98575.63;;;13.83;65.03
86143;BME280;76799;50.146;22.704;2024-03-23T09:50:23;98584.53;;;14.08;63.72
86143;BME280;76799;50.146;22.704;2024-03-23T09:55:34;98582.47;;;14.16;61.94
86143;BME280;76799;50.146;22.704;2024-03-23T10:01:24;98577.13;;;14.22;61.83
86143;BME280;76799;50.146;22.704;2024-03-23T10:07:19;98579.19;;;14.14;61.26
86143;BME280;76799;50.146;22.704;2024-03-23T10:16:34;98573.69;;;14.53;62.73
86143;BME280;76799;50.146;22.704;2024-03-23T10:39:11;98527.56;;;14.77;63.13
86143;BME280;76799;50.146;22.704;2024-03-23T11:08:54;98485.25;;;14.87;61.33
86143;BME280;76799;50.146;22.704;2024-03-23T11:14:41;98470.50;;;14.84;60.16
86143;BME280;76799;50.146;22.704;2024-03-23T11:20:32;98464.56;;;14.82;62.24
86143;BME280;76799;50.146;22.704;2024-03-23T11:26:20;98464.94;;;14.86;61.51
86143;BME280;76799;50.146;22.704;2024-03-23T11:32:09;98448.50;;;14.89;60.18
86143;BME280;76799;50.146;22.704;2024-03-23T11:43:53;98413.47;;;14.85;59.15
86143;BME280;76799;50.146;22.704;2024-03-23T11:49:40;98399.28;;;14.85;59.91
86143;BME280;76799;50.146;22.704;2024-03-23T11:58:42;98391.00;;;14.93;61.77
86143;BME280;76799;50.146;22.704;2024-03-23T12:01:10;98385.81;;;14.98;60.83
86143;BME280;76799;50.146;22.704;2024-03-23T12:03:35;98370.13;;;15.08;61.04
86143;BME280;76799;50.146;22.704;2024-03-23T12:06:02;98370.50;;;15.11;60.35
86143;BME280;76799;50.146;22.704;2024-03-23T12:08:35;98367.59;;;15.13;58.39
86143;BME280;76799;50.146;22.704;2024-03-23T12:33:47;98332.13;;;15.59;59.86
86143;BME280;76799;50.146;22.704;2024-03-23T12:39:33;98324.47;;;15.63;58.62
86143;BME280;76799;50.146;22.704;2024-03-23T12:45:22;98304.84;;;15.69;56.88
86143;BME280;76799;50.146;22.704;2024-03-23T12:51:09;98293.38;;;15.68;58.49
86143;BME280;76799;50.146;22.704;2024-03-23T12:56:56;98287.00;;;15.69;57.24
86143;BME280;76799;50.146;22.704;2024-03-23T13:02:44;98272.81;;;15.69;57.14
86143;BME280;76799;50.146;22.704;2024-03-23T13:08:31;98270.13;;;15.57;56.75
86143;BME280;76799;50.146;22.704;2024-03-23T13:14:18;98263.22;;;15.50;56.78
86143;BME280;76799;50.146;22.704;2024-03-23T13:20:06;98251.03;;;15.43;56.90
86143;BME280;76799;50.146;22.704;2024-03-23T13:25:54;98242.00;;;15.44;57.12
86143;BME280;76799;50.146;22.704;2024-03-23T13:31:42;98222.13;;;15.28;57.96
86143;BME280;76799;50.146;22.704;2024-03-23T13:37:29;98216.28;;;15.31;57.84
86143;BME280;76799;50.146;22.704;2024-03-23T13:43:16;98214.69;;;15.30;58.76
86143;BME280;76799;50.146;22.704;2024-03-23T13:49:04;98201.38;;;15.42;57.42
86143;BME280;76799;50.146;22.704;2024-03-23T13:54:51;98187.56;;;15.45;57.73
86143;BME280;76799;50.146;22.704;2024-03-23T14:00:38;98166.66;;;15.53;58.33
86143;BME280;76799;50.146;22.704;2024-03-23T14:05:49;98154.63;;;15.73;58.75
86143;BME280;76799;50.146;22.704;2024-03-23T14:11:38;98143.94;;;15.85;58.16
86143;BME280;76799;50.146;22.704;2024-03-23T14:17:27;98130.69;;;16.01;57.96
86143;BME280;76799;50.146;22.704;2024-03-23T14:23:14;98121.47;;;16.20;59.01
86143;BME280;76799;50.146;22.704;2024-03-23T14:29:01;98107.28;;;16.31;57.19
86143;BME280;76799;50.146;22.704;2024-03-23T14:34:52;98094.97;;;16.30;56.62
86143;BME280;76799;50.146;22.704;2024-03-23T14:41:00;98100.72;;;15.99;56.47
86143;BME280;76799;50.146;22.704;2024-03-23T14:46:49;98089.72;;;15.84;56.17
86143;BME280;76799;50.146;22.704;2024-03-23T14:52:36;98094.81;;;15.63;57.31
86143;BME280;76799;50.146;22.704;2024-03-23T14:58:22;98088.19;;;15.54;56.47
86143;BME280;76799;50.146;22.704;2024-03-23T15:04:11;98083.78;;;15.48;56.99
86143;BME280;76799;50.146;22.704;2024-03-23T15:09:21;98082.38;;;15.34;57.72
86143;BME280;76799;50.146;22.704;2024-03-23T15:15:09;98063.09;;;15.21;58.36
86143;BME280;76799;50.146;22.704;2024-03-23T15:20:59;98053.94;;;15.17;58.62
86143;BME280;76799;50.146;22.704;2024-03-23T15:26:50;98048.81;;;15.04;59.96
86143;BME280;76799;50.146;22.704;2024-03-23T15:32:39;98054.94;;;14.93;60.49
86143;BME280;76799;50.146;22.704;2024-03-23T15:38:26;98054.47;;;14.84;61.34
86143;BME280;76799;50.146;22.704;2024-03-23T15:44:13;98034.84;;;14.79;61.60
86143;BME280;76799;50.146;22.704;2024-03-23T15:50:01;98031.16;;;14.80;60.75
86143;BME280;76799;50.146;22.704;2024-03-23T15:55:54;98029.38;;;14.74;61.01
86143;BME280;76799;50.146;22.704;2024-03-23T16:02:01;98023.22;;;14.62;61.95
86143;BME280;76799;50.146;22.704;2024-03-23T16:07:49;98019.28;;;14.64;61.66
86143;BME280;76799;50.146;22.704;2024-03-23T16:18:32;98006.03;;;14.46;62.79
86143;BME280;76799;50.146;22.704;2024-03-23T16:24:18;97984.22;;;14.38;63.04
86143;BME280;76799;50.146;22.704;2024-03-23T16:30:06;97970.75;;;14.33;63.26
86143;BME280;76799;50.146;22.704;2024-03-23T16:36:06;97974.47;;;14.32;63.71
86143;BME280;76799;50.146;22.704;2024-03-23T16:41:53;97990.31;;;14.27;63.96
86143;BME280;76799;50.146;22.704;2024-03-23T16:47:40;97992.78;;;14.28;63.90
86143;BME280;76799;50.146;22.704;2024-03-23T16:53:27;98002.47;;;14.23;64.23
86143;BME280;76799;50.146;22.704;2024-03-23T16:59:17;98011.50;;;14.22;64.51
86143;BME280;76799;50.146;22.704;2024-03-23T17:05:05;98034.88;;;14.20;64.25
86143;BME280;76799;50.146;22.704;2024-03-23T17:10:57;98073.81;;;14.21;64.10
86143;BME280;76799;50.146;22.704;2024-03-23T17:21:41;98098.00;;;14.37;63.75
86143;BME280;76799;50.146;22.704;2024-03-23T17:28:06;98099.31;;;14.46;62.67
86143;BME280;76799;50.146;22.704;2024-03-23T17:33:53;98156.22;;;14.52;62.69
86143;BME280;76799;50.146;22.704;2024-03-23T17:39:41;98156.59;;;14.55;62.85
86143;BME280;76799;50.146;22.704;2024-03-23T17:45:29;98165.94;;;14.46;62.68
86143;BME280;76799;50.146;22.704;2024-03-23T17:51:16;98181.25;;;14.33;63.51
86143;BME280;76799;50.146;22.704;2024-03-23T17:57:07;98193.47;;;14.22;63.74
86143;BME280;76799;50.146;22.704;2024-03-23T18:06:16;98218.63;;;14.02;62.80
86143;BME280;76799;50.146;22.704;2024-03-23T18:48:55;98266.22;;;13.06;68.98
86143;BME280;76799;50.146;22.704;2024-03-23T18:54:42;98269.75;;;12.93;69.67
86143;BME280;76799;50.146;22.704;2024-03-23T19:00:30;98252.81;;;12.81;70.36
86143;BME280;76799;50.146;22.704;2024-03-23T19:06:17;98262.06;;;12.73;71.90
86143;BME280;76799;50.146;22.704;2024-03-23T19:12:05;98256.16;;;12.71;72.32
86143;BME280;76799;50.146;22.704;2024-03-23T19:17:52;98268.66;;;12.57;74.83
86143;BME280;76799;50.146;22.704;2024-03-23T19:23:39;98265.44;;;12.36;77.01
86143;BME280;76799;50.146;22.704;2024-03-23T19:29:26;98269.53;;;12.32;77.33
86143;BME280;76799;50.146;22.704;2024-03-23T19:35:13;98264.66;;;12.22;78.78
86143;BME280;76799;50.146;22.704;2024-03-23T19:41:01;98264.88;;;12.08;79.86
86143;BME280;76799;50.146;22.704;2024-03-23T19:46:12;98280.63;;;12.03;80.06
86143;BME280;76799;50.146;22.704;2024-03-23T19:48:38;98287.53;;;11.97;80.85
86143;BME280;76799;50.146;22.704;2024-03-23T19:54:27;98292.47;;;11.81;82.48
86143;BME280;76799;50.146;22.704;2024-03-23T20:00:14;98304.06;;;11.67;82.91
86143;BME280;76799;50.146;22.704;2024-03-23T20:06:01;98300.72;;;11.46;84.16
86143;BME280;76799;50.146;22.704;2024-03-23T20:11:49;98316.06;;;11.50;83.91
86143;BME280;76799;50.146;22.704;2024-03-23T20:17:36;98327.47;;;11.44;84.43
86143;BME280;76799;50.146;22.704;2024-03-23T20:36:49;98344.19;;;11.38;83.15
86143;BME280;76799;50.146;22.704;2024-03-23T20:42:37;98324.13;;;11.23;82.74
86143;BME280;76799;50.146;22.704;2024-03-23T21:00:10;98313.81;;;10.87;81.69
86143;BME280;76799;50.146;22.704;2024-03-23T21:05:57;98309.25;;;10.75;80.58
86143;BME280;76799;50.146;22.704;2024-03-23T21:11:44;98348.50;;;10.58;80.95
86143;BME280;76799;50.146;22.704;2024-03-23T21:17:31;98361.28;;;10.48;80.65
86143;BME280;76799;50.146;22.704;2024-03-23T21:23:18;98354.63;;;10.31;80.58
86143;BME280;76799;50.146;22.704;2024-03-23T21:29:05;98344.97;;;10.18;77.79
86143;BME280;76799;50.146;22.704;2024-03-23T21:34:53;98342.47;;;10.10;78.18
86143;BME280;76799;50.146;22.704;2024-03-23T21:40:40;98334.38;;;9.97;78.09
86143;BME280;76799;50.146;22.704;2024-03-23T21:46:29;98336.28;;;9.82;77.99
86143;BME280;76799;50.146;22.704;2024-03-23T21:52:16;98340.31;;;9.78;77.66
86143;BME280;76799;50.146;22.704;2024-03-23T21:58:03;98337.00;;;9.69;78.42
86143;BME280;76799;50.146;22.704;2024-03-23T22:07:25;98317.66;;;9.48;78.43
86143;BME280;76799;50.146;22.704;2024-03-23T22:13:31;98358.25;;;9.40;77.76
86143;BME280;76799;50.146;22.704;2024-03-23T22:23:00;98360.28;;;9.24;77.56
86143;BME280;76799;50.146;22.704;2024-03-23T22:28:47;98322.09;;;9.05;77.97
86143;BME280;76799;50.146;22.704;2024-03-23T22:34:34;98338.75;;;9.06;77.42
86143;BME280;76799;50.146;22.704;2024-03-23T22:40:27;98318.97;;;9.02;77.63
86143;BME280;76799;50.146;22.704;2024-03-23T22:46:15;98327.66;;;8.96;76.88
86143;BME280;76799;50.146;22.704;2024-03-23T22:57:21;98376.66;;;8.84;78.07
86143;BME280;76799;50.146;22.704;2024-03-23T23:03:09;98364.44;;;8.83;77.39
86143;BME280;76799;50.146;22.704;2024-03-23T23:08:57;98342.06;;;8.79;77.44
86143;BME280;76799;50.146;22.704;2024-03-23T23:14:44;98339.50;;;8.71;77.27
86143;BME280;76799;50.146;22.704;2024-03-23T23:20:31;98348.81;;;8.67;77.64
86143;BME280;76799;50.146;22.704;2024-03-23T23:26:18;98389.31;;;8.60;77.88
86143;BME280;76799;50.146;22.704;2024-03-23T23:32:06;98373.00;;;8.56;77.50
86143;BME280;76799;50.146;22.704;2024-03-23T23:37:53;98334.06;;;8.58;77.60
86143;BME280;76799;50.146;22.704;2024-03-23T23:43:40;98378.66;;;8.53;77.55
86143;BME280;76799;50.146;22.704;2024-03-23T23:49:27;98389.84;;;8.55;77.49
86143;BME280;76799;50.146;22.704;2024-03-23T23:54:39;98371.56;;;8.54;77.04
